createdAt,value
2022-08-27T00:01:44.990Z,16.20
2022-08-27T00:04:12.655Z,16.20
2022-08-27T00:06:40.449Z,16.10
2022-08-27T00:09:09.249Z,16.10
2022-08-27T00:11:37.133Z,16.00
2022-08-27T00:14:04.928Z,16.00
2022-08-27T00:16:32.798Z,16.00
2022-08-27T00:19:00.602Z,15.90
2022-08-27T00:21:28.177Z,15.90
2022-08-27T00:23:55.762Z,15.80
2022-08-27T00:26:23.775Z,15.80
2022-08-27T00:28:51.785Z,15.70
2022-08-27T00:31:19.423Z,15.60
2022-08-27T00:33:51.267Z,15.60
2022-08-27T00:36:18.800Z,15.50
2022-08-27T00:38:46.378Z,15.50
2022-08-27T00:41:14.137Z,15.40
2022-08-27T00:43:47.787Z,15.40
2022-08-27T00:46:32.680Z,15.30
2022-08-27T00:49:06.600Z,15.20
2022-08-27T00:51:37.028Z,15.20
2022-08-27T00:54:06.545Z,15.20
2022-08-27T00:56:40.132Z,15.10
2022-08-27T00:59:07.993Z,15.00
2022-08-27T01:01:55.633Z,15.00
2022-08-27T01:04:23.562Z,15.00
2022-08-27T01:06:51.121Z,14.90
2022-08-27T01:09:19.103Z,14.80
2022-08-27T01:11:48.248Z,14.80
2022-08-27T01:14:16.397Z,14.80
2022-08-27T01:16:49.529Z,14.70
2022-08-27T01:19:32.251Z,14.70
2022-08-27T01:22:07.365Z,14.60
2022-08-27T01:24:42.768Z,14.60
2022-08-27T01:27:17.777Z,14.50
2022-08-27T01:29:46.325Z,14.40
2022-08-27T01:32:18.573Z,14.40
2022-08-27T01:34:46.533Z,14.40
2022-08-27T01:37:15.710Z,14.30
2022-08-27T01:39:44.680Z,14.20
2022-08-27T01:42:17.742Z,14.20
2022-08-27T01:44:57.537Z,14.20
2022-08-27T01:47:30.753Z,14.10
2022-08-27T01:49:59.571Z,14.10
2022-08-27T01:52:29.286Z,14.10
2022-08-27T01:54:57.218Z,14.10
2022-08-27T01:57:26.213Z,14.10
2022-08-27T01:59:57.017Z,14.00
2022-08-27T02:02:25.090Z,14.00
2022-08-27T02:04:52.738Z,13.90
2022-08-27T02:07:20.281Z,13.80
2022-08-27T02:09:47.821Z,13.80
2022-08-27T02:12:15.398Z,13.70
2022-08-27T02:14:42.988Z,13.80
2022-08-27T02:17:12.503Z,13.70
2022-08-27T02:19:40.045Z,13.70
2022-08-27T02:22:07.960Z,13.70
2022-08-27T02:24:35.526Z,13.70
2022-08-27T02:27:03.172Z,13.60
2022-08-27T02:29:30.769Z,13.70
2022-08-27T02:31:58.478Z,13.70
2022-08-27T02:34:25.990Z,13.70
2022-08-27T02:36:53.913Z,13.70
2022-08-27T02:39:22.142Z,13.60
2022-08-27T02:41:49.711Z,13.60
2022-08-27T02:44:17.313Z,13.60
2022-08-27T02:46:44.971Z,13.60
2022-08-27T02:49:13.261Z,13.60
2022-08-27T02:51:40.818Z,13.60
2022-08-27T02:54:09.751Z,13.60
2022-08-27T02:56:37.738Z,13.60
2022-08-27T02:59:05.340Z,13.60
2022-08-27T03:01:33.781Z,13.60
2022-08-27T03:04:02.264Z,13.60
2022-08-27T03:06:31.812Z,13.60
2022-08-27T03:08:59.378Z,13.60
2022-08-27T03:11:27.158Z,13.60
2022-08-27T03:13:54.885Z,13.50
2022-08-27T03:16:22.512Z,13.50
2022-08-27T03:18:50.833Z,13.40
2022-08-27T03:21:21.109Z,13.30
2022-08-27T03:23:49.033Z,13.30
2022-08-27T03:26:17.367Z,13.20
2022-08-27T03:28:45.352Z,13.30
2022-08-27T03:31:27.222Z,13.40
2022-08-27T03:33:58.588Z,13.10
2022-08-27T03:36:28.085Z,13.10
2022-08-27T03:38:56.316Z,13.00
2022-08-27T03:41:39.911Z,13.00
2022-08-27T03:44:21.351Z,13.00
2022-08-27T03:46:51.336Z,13.00
2022-08-27T03:49:21.456Z,12.90
2022-08-27T03:51:51.016Z,12.90
2022-08-27T03:54:18.753Z,12.80
2022-08-27T03:56:46.885Z,12.70
2022-08-27T03:59:15.776Z,12.70
2022-08-27T04:01:45.027Z,12.70
2022-08-27T04:04:13.165Z,12.70
2022-08-27T04:06:41.284Z,12.70
2022-08-27T04:09:08.921Z,12.60
2022-08-27T04:11:36.866Z,12.70
2022-08-27T04:14:06.891Z,12.60
2022-08-27T04:16:52.457Z,12.50
2022-08-27T04:19:23.860Z,12.50
2022-08-27T04:21:54.026Z,12.50
2022-08-27T04:24:22.179Z,12.40
2022-08-27T04:26:49.724Z,12.40
2022-08-27T04:29:17.221Z,12.40
2022-08-27T04:31:45.387Z,12.30
2022-08-27T04:34:12.908Z,12.40
2022-08-27T04:36:40.436Z,12.30
2022-08-27T04:39:08.002Z,12.30
2022-08-27T04:41:35.622Z,12.30
2022-08-27T04:44:06.827Z,12.30
2022-08-27T04:46:39.158Z,12.20
2022-08-27T04:49:10.727Z,12.20
2022-08-27T04:51:40.139Z,12.10
2022-08-27T04:54:08.913Z,12.10
2022-08-27T04:56:37.134Z,12.10
2022-08-27T04:59:06.812Z,12.10
2022-08-27T05:01:34.910Z,12.00
2022-08-27T05:04:03.110Z,12.00
2022-08-27T05:06:30.718Z,12.00
2022-08-27T05:08:58.258Z,12.00
2022-08-27T05:11:32.149Z,12.10
2022-08-27T05:14:01.615Z,12.10
2022-08-27T05:16:29.693Z,12.10
2022-08-27T05:18:59.429Z,12.10
2022-08-27T05:21:30.432Z,12.10
2022-08-27T05:24:00.027Z,12.10
2022-08-27T05:26:28.964Z,12.00
2022-08-27T05:29:00.307Z,12.00
2022-08-27T05:31:28.503Z,12.00
2022-08-27T05:33:57.775Z,12.00
2022-08-27T05:36:29.417Z,11.90
2022-08-27T05:38:58.817Z,11.90
2022-08-27T05:41:34.316Z,11.90
2022-08-27T05:44:36.747Z,11.90
2022-08-27T05:46:56.898Z,12.00
2022-08-27T05:49:24.489Z,12.00
2022-08-27T05:51:52.041Z,12.10
2022-08-27T05:54:20.043Z,12.10
2022-08-27T05:56:49.868Z,12.20
2022-08-27T05:59:36.942Z,12.20
2022-08-27T06:02:06.300Z,12.30
2022-08-27T06:04:34.346Z,12.30
2022-08-27T06:07:02.033Z,12.40
2022-08-27T06:09:29.785Z,12.40
2022-08-27T06:12:00.110Z,12.40
2022-08-27T06:14:28.102Z,12.50
2022-08-27T06:16:56.135Z,12.60
2022-08-27T06:19:24.417Z,12.70
2022-08-27T06:22:00.727Z,12.70
2022-08-27T06:24:42.068Z,12.80
2022-08-27T06:27:13.348Z,12.90
2022-08-27T06:29:41.677Z,13.00
2022-08-27T06:32:09.730Z,13.10
2022-08-27T06:34:38.029Z,13.20
2022-08-27T06:37:07.005Z,13.30
2022-08-27T06:39:36.233Z,13.50
2022-08-27T06:42:06.445Z,13.60
2022-08-27T06:44:34.177Z,13.80
2022-08-27T06:47:03.780Z,14.00
2022-08-27T06:49:32.029Z,14.20
2022-08-27T06:51:59.641Z,14.50
2022-08-27T06:54:27.510Z,14.70
2022-08-27T06:57:00.140Z,14.90
2022-08-27T06:59:27.952Z,15.10
2022-08-27T07:01:55.545Z,15.20
2022-08-27T07:04:32.081Z,15.30
2022-08-27T07:07:02.632Z,15.40
2022-08-27T07:09:32.536Z,15.60
2022-08-27T07:12:01.439Z,15.70
2022-08-27T07:14:32.985Z,15.80
2022-08-27T07:17:05.253Z,16.00
2022-08-27T07:19:41.182Z,16.00
2022-08-27T07:22:09.515Z,16.20
2022-08-27T07:24:38.144Z,16.40
2022-08-27T07:27:06.575Z,16.50
2022-08-27T07:29:34.305Z,16.70
2022-08-27T07:32:02.002Z,16.90
2022-08-27T07:34:29.553Z,17.00
2022-08-27T07:36:57.157Z,17.20
2022-08-27T07:39:24.725Z,17.30
2022-08-27T07:42:11.144Z,17.50
2022-08-27T07:44:38.701Z,17.60
2022-08-27T07:47:08.467Z,17.80
2022-08-27T07:49:36.402Z,17.90
2022-08-27T07:52:04.223Z,18.00
2022-08-27T07:54:31.812Z,18.10
2022-08-27T07:56:59.424Z,18.10
2022-08-27T07:59:27.528Z,18.10
2022-08-27T08:01:56.557Z,18.20
2022-08-27T08:04:26.625Z,18.30
2022-08-27T08:06:55.871Z,18.40
2022-08-27T08:09:25.014Z,18.60
2022-08-27T08:11:54.048Z,18.80
2022-08-27T08:14:21.854Z,19.00
2022-08-27T08:16:49.771Z,19.20
2022-08-27T08:19:17.927Z,19.30
2022-08-27T08:21:45.660Z,19.40
2022-08-27T08:24:13.269Z,19.60
2022-08-27T08:26:42.082Z,19.80
2022-08-27T08:29:13.368Z,20.00
2022-08-27T08:31:50.138Z,20.10
2022-08-27T08:34:19.691Z,20.20
2022-08-27T08:36:53.767Z,20.40
2022-08-27T08:39:23.230Z,20.60
2022-08-27T08:41:56.171Z,20.90
2022-08-27T08:44:32.574Z,21.20
2022-08-27T08:47:14.542Z,21.40
2022-08-27T08:50:00.799Z,21.40
2022-08-27T08:52:34.223Z,21.40
2022-08-27T08:55:25.925Z,21.40
2022-08-27T08:58:18.062Z,21.50
2022-08-27T09:00:49.134Z,21.60
2022-08-27T09:03:17.012Z,21.80
2022-08-27T09:05:53.408Z,22.00
2022-08-27T09:08:38.901Z,22.20
2022-08-27T09:11:25.713Z,22.50
2022-08-27T09:13:59.582Z,22.70
2022-08-27T09:16:27.879Z,22.70
2022-08-27T09:18:56.028Z,22.70
2022-08-27T09:21:34.593Z,22.80
2022-08-27T09:24:14.866Z,22.80
2022-08-27T09:26:44.294Z,22.80
2022-08-27T09:29:21.103Z,22.80
2022-08-27T09:32:24.923Z,22.70
2022-08-27T09:34:52.511Z,22.60
2022-08-27T09:37:34.669Z,22.70
2022-08-27T09:40:27.086Z,22.70
2022-08-27T09:42:58.474Z,22.60
2022-08-27T09:45:29.937Z,22.60
2022-08-27T09:48:13.822Z,22.60
2022-08-27T09:50:57.442Z,22.60
2022-08-27T09:53:33.264Z,22.60
2022-08-27T09:56:09.556Z,22.60
2022-08-27T09:58:43.204Z,22.70
2022-08-27T10:01:26.151Z,22.70
2022-08-27T10:04:17.885Z,22.70
2022-08-27T10:06:48.122Z,22.60
2022-08-27T10:09:30.319Z,22.70
2022-08-27T10:12:21.101Z,23.00
2022-08-27T10:14:54.336Z,23.10
2022-08-27T10:17:46.020Z,23.30
2022-08-27T10:20:39.484Z,23.20
2022-08-27T10:23:31.793Z,23.20
2022-08-27T10:26:09.393Z,23.30
2022-08-27T10:28:57.342Z,23.60
2022-08-27T10:31:43.197Z,23.70
2022-08-27T10:34:26.141Z,24.00
2022-08-27T10:37:05.293Z,24.40
2022-08-27T10:39:41.290Z,24.70
2022-08-27T10:42:26.725Z,24.70
2022-08-27T10:44:57.333Z,24.60
2022-08-27T10:47:46.554Z,24.50
2022-08-27T10:50:17.669Z,24.40
2022-08-27T10:52:55.286Z,24.40
2022-08-27T10:55:28.301Z,25.00
2022-08-27T10:58:23.623Z,25.20
2022-08-27T11:01:05.965Z,25.20
2022-08-27T11:04:02.578Z,25.00
2022-08-27T11:06:55.261Z,25.00
2022-08-27T11:09:47.907Z,24.80
2022-08-27T11:12:47.316Z,24.80
2022-08-27T11:15:34.820Z,25.80
2022-08-27T11:18:19.282Z,26.80
2022-08-27T11:21:07.307Z,28.00
2022-08-27T11:23:41.847Z,29.10
2022-08-27T11:26:09.773Z,29.90
2022-08-27T11:28:52.501Z,30.20
2022-08-27T11:31:29.637Z,30.70
2022-08-27T11:34:07.976Z,30.70
2022-08-27T11:36:45.248Z,30.20
2022-08-27T11:39:47.559Z,29.40
2022-08-27T11:42:35.232Z,29.00
2022-08-27T11:45:28.639Z,29.70
2022-08-27T11:48:01.902Z,30.80
2022-08-27T11:50:31.299Z,31.60
2022-08-27T11:52:58.851Z,32.30
2022-08-27T11:55:39.249Z,32.80
2022-08-27T11:58:18.764Z,32.90
2022-08-27T12:00:48.255Z,32.10
2022-08-27T12:03:18.987Z,31.20
2022-08-27T12:06:04.245Z,30.70
2022-08-27T12:08:34.907Z,30.20
2022-08-27T12:11:27.384Z,30.30
2022-08-27T12:14:39.554Z,31.00
2022-08-27T12:17:48.250Z,31.90
2022-08-27T12:21:08.211Z,32.10
2022-08-27T12:23:42.355Z,30.90
2022-08-27T12:26:25.365Z,29.40
2022-08-27T12:29:29.332Z,28.50
2022-08-27T12:32:24.858Z,27.90
2022-08-27T12:35:10.754Z,27.50
2022-08-27T12:37:49.273Z,28.00
2022-08-27T12:40:27.069Z,28.00
2022-08-27T12:43:13.190Z,27.80
2022-08-27T12:45:55.576Z,27.40
2022-08-27T12:48:30.411Z,27.10
2022-08-27T12:51:07.003Z,26.90
2022-08-27T12:53:53.199Z,27.40
2022-08-27T12:56:57.022Z,28.30
2022-08-27T12:59:40.121Z,28.60
2022-08-27T13:02:41.406Z,28.40
2022-08-27T13:05:11.958Z,28.00
2022-08-27T13:07:43.233Z,27.40
2022-08-27T13:10:19.937Z,26.90
2022-08-27T13:12:48.729Z,26.40
2022-08-27T13:15:19.589Z,26.40
2022-08-27T13:17:47.726Z,27.00
2022-08-27T13:20:22.423Z,28.10
2022-08-27T13:22:51.962Z,28.90
2022-08-27T13:25:37.558Z,29.10
2022-08-27T13:28:15.989Z,28.80
2022-08-27T13:30:46.514Z,28.30
2022-08-27T13:33:21.381Z,27.80
2022-08-27T13:35:49.046Z,27.40
2022-08-27T13:38:18.017Z,27.20
2022-08-27T13:41:06.149Z,27.50
2022-08-27T13:43:43.094Z,27.50
2022-08-27T13:46:18.199Z,27.30
2022-08-27T13:48:49.138Z,26.70
2022-08-27T13:51:33.948Z,26.20
2022-08-27T13:54:13.884Z,25.90
2022-08-27T13:56:47.212Z,25.60
2022-08-27T13:59:24.163Z,25.30
2022-08-27T14:02:19.935Z,25.10
2022-08-27T14:05:06.440Z,24.90
2022-08-27T14:07:37.444Z,24.60
2022-08-27T14:10:21.040Z,24.50
2022-08-27T14:13:13.514Z,24.30
2022-08-27T14:15:48.120Z,24.20
2022-08-27T14:18:58.769Z,24.00
2022-08-27T14:21:23.469Z,24.00
2022-08-27T14:23:52.467Z,23.90
2022-08-27T14:26:20.413Z,23.90
2022-08-27T14:28:48.250Z,23.90
2022-08-27T14:31:16.655Z,23.90
2022-08-27T14:33:47.606Z,23.90
2022-08-27T14:36:16.067Z,24.00
2022-08-27T14:38:46.696Z,24.10
2022-08-27T14:41:14.362Z,24.30
2022-08-27T14:43:42.046Z,24.40
2022-08-27T14:46:32.221Z,24.60
2022-08-27T14:49:01.906Z,24.80
2022-08-27T14:51:32.243Z,24.90
2022-08-27T14:53:59.813Z,24.90
2022-08-27T14:56:27.434Z,24.90
2022-08-27T14:58:55.996Z,25.00
2022-08-27T15:01:25.365Z,25.20
2022-08-27T15:03:54.723Z,25.50
2022-08-27T15:06:23.749Z,26.30
2022-08-27T15:08:52.006Z,27.30
2022-08-27T15:11:23.729Z,28.40
2022-08-27T15:13:52.697Z,29.40
2022-08-27T15:16:34.083Z,30.30
2022-08-27T15:19:01.901Z,31.20
2022-08-27T15:21:31.136Z,31.80
2022-08-27T15:24:10.093Z,32.20
2022-08-27T15:26:37.640Z,32.40
2022-08-27T15:29:06.820Z,32.40
2022-08-27T15:31:35.642Z,31.90
2022-08-27T15:34:03.499Z,31.40
2022-08-27T15:36:31.117Z,31.40
2022-08-27T15:38:58.770Z,31.70
2022-08-27T15:41:29.291Z,32.10
2022-08-27T15:43:57.023Z,32.10
2022-08-27T15:46:25.705Z,32.00
2022-08-27T15:48:53.874Z,32.20
2022-08-27T15:51:27.398Z,32.30
2022-08-27T15:53:55.557Z,32.00
2022-08-27T15:56:24.033Z,31.50
2022-08-27T15:58:51.712Z,30.90
2022-08-27T16:01:33.070Z,30.30
2022-08-27T16:04:01.139Z,29.60
2022-08-27T16:06:29.435Z,29.00
2022-08-27T16:08:57.340Z,28.50
2022-08-27T16:11:25.022Z,28.00
2022-08-27T16:13:52.834Z,27.50
2022-08-27T16:16:25.327Z,27.10
2022-08-27T16:18:53.213Z,26.70
2022-08-27T16:21:21.437Z,26.50
2022-08-27T16:23:49.265Z,26.20
2022-08-27T16:26:16.842Z,25.90
2022-08-27T16:28:45.823Z,25.70
2022-08-27T16:31:14.229Z,25.50
2022-08-27T16:33:43.430Z,25.30
2022-08-27T16:36:11.093Z,25.20
2022-08-27T16:38:39.233Z,25.00
2022-08-27T16:41:07.657Z,24.80
2022-08-27T16:43:35.233Z,24.70
2022-08-27T16:46:03.525Z,24.60
2022-08-27T16:48:51.539Z,24.50
2022-08-27T16:51:37.749Z,24.40
2022-08-27T16:54:07.025Z,24.40
2022-08-27T16:56:37.617Z,24.30
2022-08-27T16:59:06.220Z,24.30
2022-08-27T17:01:34.475Z,24.20
2022-08-27T17:04:10.137Z,24.10
2022-08-27T17:06:44.772Z,24.10
2022-08-27T17:09:13.529Z,24.10
2022-08-27T17:11:42.910Z,24.00
2022-08-27T17:14:12.137Z,23.90
2022-08-27T17:16:43.411Z,23.90
2022-08-27T17:19:16.903Z,23.80
2022-08-27T17:21:45.549Z,23.80
2022-08-27T17:24:13.548Z,23.60
2022-08-27T17:26:41.246Z,23.60
2022-08-27T17:29:08.821Z,23.50
2022-08-27T17:31:40.564Z,23.40
2022-08-27T17:34:15.130Z,23.40
2022-08-27T17:36:44.398Z,23.30
2022-08-27T17:39:13.403Z,23.20
2022-08-27T17:41:45.538Z,23.20
2022-08-27T17:44:32.647Z,23.10
2022-08-27T17:47:02.968Z,23.10
2022-08-27T17:49:31.280Z,23.00
2022-08-27T17:52:02.414Z,23.00
2022-08-27T17:54:42.736Z,22.90
2022-08-27T17:57:19.751Z,23.00
2022-08-27T17:59:47.600Z,22.90
2022-08-27T18:02:21.229Z,22.90
2022-08-27T18:04:50.264Z,22.80
2022-08-27T18:07:19.003Z,22.80
2022-08-27T18:09:48.752Z,22.70
2022-08-27T18:12:19.471Z,22.60
2022-08-27T18:14:52.127Z,22.60
2022-08-27T18:17:19.966Z,22.60
2022-08-27T18:19:47.671Z,22.50
2022-08-27T18:22:18.837Z,22.50
2022-08-27T18:24:46.381Z,22.40
2022-08-27T18:27:13.910Z,22.30
2022-08-27T18:29:41.872Z,22.30
2022-08-27T18:32:09.745Z,22.30
2022-08-27T18:34:37.290Z,22.30
2022-08-27T18:37:08.416Z,22.30
2022-08-27T18:39:39.455Z,22.20
2022-08-27T18:42:08.928Z,22.20
2022-08-27T18:44:38.432Z,22.20
2022-08-27T18:47:06.489Z,22.10
2022-08-27T18:49:34.792Z,22.10
2022-08-27T18:52:02.789Z,22.00
2022-08-27T18:54:30.529Z,21.90
2022-08-27T18:56:58.110Z,21.80
2022-08-27T18:59:27.172Z,21.80
2022-08-27T19:01:56.230Z,21.70
2022-08-27T19:04:24.555Z,21.60
2022-08-27T19:06:52.345Z,21.50
2022-08-27T19:09:20.995Z,21.50
2022-08-27T19:11:48.684Z,21.40
2022-08-27T19:14:16.240Z,21.30
2022-08-27T19:16:50.645Z,21.20
2022-08-27T19:19:18.749Z,21.10
2022-08-27T19:21:51.161Z,21.00
2022-08-27T19:24:22.563Z,20.80
2022-08-27T19:26:50.947Z,20.70
2022-08-27T19:29:19.830Z,20.60
2022-08-27T19:31:47.771Z,20.50
2022-08-27T19:34:15.429Z,20.40
2022-08-27T19:36:43.688Z,20.30
2022-08-27T19:39:13.245Z,20.20
2022-08-27T19:41:41.286Z,20.10
2022-08-27T19:44:08.933Z,20.00
2022-08-27T19:46:37.826Z,19.90
2022-08-27T19:49:05.494Z,19.90
2022-08-27T19:51:33.260Z,19.80
2022-08-27T19:54:00.909Z,19.60
2022-08-27T19:56:29.243Z,19.50
2022-08-27T19:59:01.478Z,19.50
2022-08-27T20:01:33.634Z,19.40
2022-08-27T20:04:01.302Z,19.30
2022-08-27T20:06:29.722Z,19.30
2022-08-27T20:08:58.364Z,19.20
2022-08-27T20:11:26.137Z,19.20
2022-08-27T20:13:53.672Z,19.20
2022-08-27T20:16:23.366Z,19.10
2022-08-27T20:18:50.956Z,19.10
2022-08-27T20:21:18.784Z,19.00
2022-08-27T20:23:46.396Z,19.00
2022-08-27T20:26:14.006Z,19.00
2022-08-27T20:28:42.124Z,19.00
2022-08-27T20:31:09.931Z,19.00
2022-08-27T20:33:37.574Z,19.00
2022-08-27T20:36:07.982Z,19.00
2022-08-27T20:38:35.558Z,19.00
2022-08-27T20:41:04.030Z,19.00
2022-08-27T20:43:31.704Z,19.00
2022-08-27T20:45:59.991Z,19.10
2022-08-27T20:48:28.408Z,19.00
2022-08-27T20:50:56.375Z,19.00
2022-08-27T20:53:24.723Z,19.00
2022-08-27T20:55:56.459Z,19.00
2022-08-27T20:58:44.294Z,18.90
2022-08-27T21:01:12.387Z,18.90
2022-08-27T21:03:40.073Z,18.80
2022-08-27T21:06:07.759Z,18.70
2022-08-27T21:08:37.633Z,18.60
2022-08-27T21:11:11.002Z,18.60
2022-08-27T21:13:51.149Z,18.60
2022-08-27T21:16:24.685Z,18.60
2022-08-27T21:18:53.788Z,18.50
2022-08-27T21:21:22.192Z,18.50
2022-08-27T21:23:50.250Z,18.40
2022-08-27T21:26:17.933Z,18.30
2022-08-27T21:28:45.593Z,18.20
2022-08-27T21:31:13.225Z,18.10
2022-08-27T21:33:41.006Z,18.10
2022-08-27T21:36:11.976Z,18.00
2022-08-27T21:38:40.793Z,18.00
2022-08-27T21:41:08.849Z,17.90
2022-08-27T21:43:36.857Z,17.90
2022-08-27T21:46:04.988Z,17.80
2022-08-27T21:48:33.010Z,17.60
2022-08-27T21:51:08.127Z,17.50
2022-08-27T21:53:36.318Z,17.40
2022-08-27T21:56:04.218Z,17.20
2022-08-27T21:58:32.193Z,17.10
2022-08-27T22:01:01.633Z,17.00
2022-08-27T22:03:29.445Z,16.90
2022-08-27T22:05:57.322Z,16.80
2022-08-27T22:08:25.323Z,16.80
2022-08-27T22:10:57.879Z,16.70
2022-08-27T22:13:26.609Z,16.60
2022-08-27T22:15:54.326Z,16.50
2022-08-27T22:18:23.118Z,16.40
2022-08-27T22:20:52.096Z,16.40
2022-08-27T22:23:20.933Z,16.30
2022-08-27T22:25:49.055Z,16.20
2022-08-27T22:28:17.201Z,16.10
2022-08-27T22:30:46.323Z,16.10
2022-08-27T22:33:14.037Z,16.00
2022-08-27T22:35:41.653Z,15.90
2022-08-27T22:38:12.347Z,15.80
2022-08-27T22:40:40.783Z,15.80
2022-08-27T22:43:09.078Z,15.70
2022-08-27T22:45:36.761Z,15.60
2022-08-27T22:48:04.414Z,15.60
2022-08-27T22:50:32.025Z,15.70
2022-08-27T22:52:59.612Z,15.70
2022-08-27T22:55:27.421Z,15.70
2022-08-27T22:57:56.706Z,15.70
2022-08-27T23:00:31.214Z,15.70
2022-08-27T23:02:59.621Z,15.80
2022-08-27T23:05:28.520Z,15.80
2022-08-27T23:08:12.047Z,15.80
2022-08-27T23:10:42.795Z,15.80
2022-08-27T23:13:12.047Z,15.80
2022-08-27T23:15:40.816Z,15.80
2022-08-27T23:18:08.680Z,15.90
2022-08-27T23:20:36.334Z,15.90
2022-08-27T23:23:04.094Z,16.00
2022-08-27T23:25:50.333Z,16.00
2022-08-27T23:28:18.211Z,16.00
2022-08-27T23:30:46.040Z,16.00
2022-08-27T23:33:14.532Z,16.10
2022-08-27T23:35:47.922Z,16.20
2022-08-27T23:38:16.573Z,16.30
2022-08-27T23:40:45.528Z,16.30
2022-08-27T23:43:14.074Z,16.30
2022-08-27T23:45:41.768Z,16.20
2022-08-27T23:48:09.897Z,16.20
2022-08-27T23:50:37.786Z,16.20
2022-08-27T23:53:07.479Z,16.20
2022-08-27T23:55:36.263Z,16.20
2022-08-27T23:58:05.057Z,16.20
